Time;durP1;ratioP1;P1;durP2;ratioP2;P2;SDS_P1;SDS_P2;PMS_P1;PMS_P2;Temp;Humidity;BMP_temperature;BMP_pressure;BME280_temperature;BME280_humidity;BME280_pressure;Samples;Min_cycle;Max_cycle;Signal;HPM_P1;HPM_P2
2023/10/30 00:01:29;;;;;;;1.77;1.60;;;15.70;69.40;14.40;95483.00;;;;5017858;28;20205;-79
2023/10/30 00:03:58;;;;;;;1.57;1.47;;;15.60;68.60;14.30;95479.00;;;;5019535;28;20205;-79
2023/10/30 00:06:26;;;;;;;1.83;1.53;;;15.60;68.70;14.30;95472.00;;;;5017806;28;20202;-78
2023/10/30 00:08:54;;;;;;;1.83;1.73;;;15.60;69.60;14.30;95472.00;;;;5009942;28;20660;-79
2023/10/30 00:11:22;;;;;;;1.77;1.60;;;15.50;68.90;14.20;95479.00;;;;5035050;28;20260;-79
2023/10/30 00:13:49;;;;;;;1.70;1.60;;;15.50;68.90;14.20;95487.00;;;;5009160;28;20636;-79
2023/10/30 00:16:16;;;;;;;1.67;1.57;;;15.50;68.80;14.20;95488.00;;;;5016257;28;20230;-79
2023/10/30 00:18:45;;;;;;;1.80;1.70;;;15.50;68.90;14.20;95492.00;;;;5020075;28;20201;-79
2023/10/30 00:21:13;;;;;;;1.57;1.47;;;15.50;69.10;14.20;95501.00;;;;5008312;28;20344;-78
2023/10/30 00:23:41;;;;;;;2.37;1.90;;;15.40;69.10;14.10;95504.00;;;;5034413;28;20288;-78
2023/10/30 00:26:09;;;;;;;1.47;1.37;;;15.40;69.10;14.10;95501.00;;;;5000272;28;20714;-78
2023/10/30 00:28:36;;;;;;;1.50;1.40;;;15.40;69.10;14.10;95499.00;;;;5035215;28;20201;-79
2023/10/30 00:31:05;;;;;;;1.80;1.70;;;15.30;69.10;14.10;95501.00;;;;5018323;28;20312;-79
2023/10/30 00:33:32;;;;;;;1.97;1.87;;;15.30;69.10;14.00;95500.00;;;;5003387;28;20292;-79
2023/10/30 00:35:59;;;;;;;2.13;1.50;;;15.30;69.00;14.00;95497.00;;;;5035506;28;20205;-79
2023/10/30 00:38:27;;;;;;;1.40;1.30;;;15.30;69.00;14.00;95492.00;;;;5033299;28;20319;-79
2023/10/30 00:40:57;;;;;;;4.20;1.40;;;15.30;69.00;14.00;95502.00;;;;5027181;28;20313;-79
2023/10/30 00:43:24;;;;;;;1.57;1.37;;;15.30;69.10;13.90;95499.00;;;;5016207;28;20213;-79
2023/10/30 00:45:52;;;;;;;1.67;1.57;;;15.20;69.00;13.90;95496.00;;;;5034353;28;20300;-79
2023/10/30 00:48:19;;;;;;;1.83;1.50;;;15.20;68.90;13.90;95494.00;;;;5033774;28;20213;-79
2023/10/30 00:50:49;;;;;;;2.17;1.70;;;15.20;68.90;13.80;95491.00;;;;5034026;28;20336;-79
2023/10/30 00:53:16;;;;;;;2.27;1.63;;;15.20;69.00;13.80;95494.00;;;;4998757;28;20197;-79
2023/10/30 00:55:43;;;;;;;1.60;1.50;;;15.20;69.00;13.80;95494.00;;;;5028191;28;20730;-79
2023/10/30 00:58:12;;;;;;;1.73;1.50;;;15.10;69.00;13.80;95487.00;;;;5034104;28;20197;-79
2023/10/30 01:00:39;;;;;;;1.40;1.30;;;15.10;69.00;13.80;95492.00;;;;5033859;28;20605;-79
2023/10/30 01:03:06;;;;;;;2.10;1.90;;;15.10;69.10;13.80;95492.00;;;;5033744;28;20296;-79
2023/10/30 01:05:33;;;;;;;1.40;1.30;;;15.10;69.30;13.80;95501.00;;;;5033194;28;20208;-79
2023/10/30 01:08:01;;;;;;;1.50;1.40;;;15.10;69.50;13.80;95504.00;;;;5035534;28;20207;-79
2023/10/30 01:10:28;;;;;;;1.40;1.30;;;15.00;69.50;13.80;95499.00;;;;5016066;28;20960;-79
2023/10/30 01:12:56;;;;;;;1.40;1.30;;;15.00;69.50;13.70;95498.00;;;;5032421;28;20320;-79
2023/10/30 01:15:24;;;;;;;1.33;1.23;;;15.00;69.30;13.70;95496.00;;;;4998659;28;20285;-79
2023/10/30 01:17:52;;;;;;;1.43;1.33;;;15.00;69.20;13.70;95498.00;;;;5025657;28;20241;-78
2023/10/30 01:20:19;;;;;;;1.40;1.30;;;15.00;69.30;13.70;95495.00;;;;5030208;28;20228;-79
2023/10/30 01:22:46;;;;;;;1.40;1.30;;;15.00;69.20;13.70;95492.00;;;;5031933;28;20219;-79
2023/10/30 01:25:14;;;;;;;1.50;1.40;;;15.00;69.20;13.60;95493.00;;;;5024612;28;20221;-79
2023/10/30 01:27:42;;;;;;;1.83;1.60;;;15.00;69.20;13.60;95487.00;;;;5033644;28;20292;-79
2023/10/30 01:30:11;;;;;;;1.20;1.10;;;14.90;69.10;13.60;95489.00;;;;5015688;28;20257;-79
2023/10/30 01:32:40;;;;;;;1.77;1.30;;;14.90;69.00;13.50;95482.00;;;;5028428;28;20232;-79
2023/10/30 01:35:08;;;;;;;1.70;1.60;;;14.90;68.90;13.50;95474.00;;;;4988851;28;20240;-79
2023/10/30 01:37:36;;;;;;;1.47;1.37;;;14.90;68.90;13.50;95474.00;;;;5033181;28;20694;-79
2023/10/30 01:40:03;;;;;;;2.33;1.83;;;14.80;68.90;13.50;95471.00;;;;5033168;28;20713;-79
2023/10/30 01:42:31;;;;;;;1.40;1.30;;;14.80;69.00;13.40;95474.00;;;;5017579;28;20209;-79
2023/10/30 01:45:01;;;;;;;1.60;1.50;;;14.80;68.80;13.40;95477.00;;;;5015617;28;20654;-79
2023/10/30 01:47:29;;;;;;;2.03;1.83;;;14.70;68.70;13.40;95470.00;;;;5015987;28;20579;-78
2023/10/30 01:50:00;;;;;;;1.30;1.20;;;14.70;68.80;13.40;95477.00;;;;5033431;28;20699;-79
2023/10/30 01:52:30;;;;;;;1.40;1.10;;;14.70;68.80;13.40;95484.00;;;;5033030;28;20221;-79
2023/10/30 01:54:59;;;;;;;1.80;1.70;;;14.70;68.90;13.30;95487.00;;;;5015821;28;20236;-79
2023/10/30 01:57:28;;;;;;;1.80;1.30;;;14.60;68.80;13.30;95489.00;;;;5015509;28;20847;-79
2023/10/30 01:59:57;;;;;;;1.67;1.40;;;14.60;68.70;13.20;95502.00;;;;5015469;28;20228;-79
2023/10/30 02:02:29;;;;;;;1.50;1.40;;;14.60;68.60;13.20;95500.00;;;;5031662;28;20217;-79
2023/10/30 02:04:58;;;;;;;1.30;1.20;;;14.60;68.60;13.20;95492.00;;;;5015080;28;20197;-79
2023/10/30 02:07:26;;;;;;;1.33;1.23;;;14.50;68.40;13.10;95502.00;;;;4989169;28;20202;-79
2023/10/30 02:09:55;;;;;;;1.87;1.53;;;14.50;68.40;13.10;95498.00;;;;5030863;28;20231;-79
2023/10/30 02:12:22;;;;;;;1.50;1.40;;;14.50;68.30;13.00;95487.00;;;;5011149;28;20256;-79
2023/10/30 02:14:49;;;;;;;1.37;1.07;;;14.50;68.30;13.00;95486.00;;;;5013436;28;20455;-79
2023/10/30 02:17:17;;;;;;;1.50;1.40;;;14.40;68.30;12.90;95489.00;;;;5023014;28;20289;-79
2023/10/30 02:19:44;;;;;;;2.03;1.40;;;14.40;68.10;12.90;95488.00;;;;5030186;28;20308;-79
2023/10/30 02:22:12;;;;;;;1.30;1.20;;;14.40;68.10;12.90;95487.00;;;;5031933;28;20560;-79
2023/10/30 02:24:40;;;;;;;1.33;1.27;;;14.30;68.00;12.80;95479.00;;;;5015336;28;20243;-79
2023/10/30 02:27:09;;;;;;;1.40;1.30;;;14.30;68.00;12.80;95481.00;;;;5031524;28;20201;-79
2023/10/30 02:29:36;;;;;;;1.43;1.33;;;14.20;68.00;12.70;95476.00;;;;5032390;28;20308;-79
2023/10/30 02:32:04;;;;;;;1.90;1.50;;;14.20;68.00;12.70;95474.00;;;;5014641;28;20233;-79
2023/10/30 02:34:31;;;;;;;1.50;1.40;;;14.10;67.90;12.70;95479.00;;;;5032520;28;20216;-79
2023/10/30 02:37:00;;;;;;;1.77;1.43;;;14.10;68.10;12.70;95477.00;;;;5014793;28;20670;-79
2023/10/30 02:39:32;;;;;;;2.40;1.47;;;14.10;68.40;12.70;95471.00;;;;5030901;28;20225;-79
2023/10/30 02:42:01;;;;;;;1.33;1.10;;;14.00;68.50;12.60;95474.00;;;;5032303;28;20235;-79
2023/10/30 02:44:30;;;;;;;1.10;1.10;;;14.00;68.50;12.60;95476.00;;;;5024369;28;20201;-79
2023/10/30 02:46:59;;;;;;;1.30;1.20;;;14.00;68.50;12.60;95481.00;;;;5032899;28;20211;-78
2023/10/30 02:49:26;;;;;;;1.10;1.00;;;14.00;68.50;12.50;95485.00;;;;5015288;28;20601;-79
2023/10/30 02:51:53;;;;;;;1.40;1.30;;;13.90;68.30;12.50;95470.00;;;;4998885;28;20232;-79
2023/10/30 02:54:21;;;;;;;1.17;1.17;;;13.90;68.30;12.50;95465.00;;;;5015320;28;20205;-79
2023/10/30 02:56:48;;;;;;;1.50;1.40;;;13.90;68.50;12.50;95474.00;;;;5032992;28;20292;-79
2023/10/30 02:59:17;;;;;;;1.57;1.47;;;13.80;68.60;12.50;95472.00;;;;5024170;28;20232;-79
2023/10/30 03:01:46;;;;;;;1.77;1.30;;;13.80;68.90;12.50;95467.00;;;;5014784;28;20212;-78
2023/10/30 03:04:16;;;;;;;3.00;1.10;;;13.80;69.00;12.50;95482.00;;;;5030476;28;20704;-79
2023/10/30 03:06:45;;;;;;;0.87;0.87;;;13.80;69.00;12.50;95486.00;;;;5024897;28;20271;-79
2023/10/30 03:09:12;;;;;;;1.67;1.27;;;13.80;69.00;12.50;95491.00;;;;5031204;28;20640;-79
2023/10/30 03:11:39;;;;;;;1.40;1.30;;;13.80;68.80;12.40;95492.00;;;;5026451;28;20208;-78
2023/10/30 03:14:07;;;;;;;3.13;1.10;;;13.80;68.80;12.40;95507.00;;;;5017143;28;20566;-79
2023/10/30 03:16:34;;;;;;;1.50;1.20;;;13.80;68.70;12.40;95508.00;;;;5032238;28;20219;-79
2023/10/30 03:19:04;;;;;;;1.50;1.40;;;13.70;68.60;12.40;95512.00;;;;5033279;28;20583;-79
2023/10/30 03:21:32;;;;;;;1.00;1.00;;;13.80;68.70;12.30;95518.00;;;;4992215;28;20212;-78
2023/10/30 03:23:59;;;;;;;1.40;1.30;;;13.70;68.70;12.30;95517.00;;;;5033089;28;20599;-79
2023/10/30 03:26:26;;;;;;;1.20;1.10;;;13.70;68.70;12.30;95514.00;;;;5033484;28;20202;-79
2023/10/30 03:28:53;;;;;;;1.20;1.10;;;13.70;68.70;12.30;95515.00;;;;5026243;28;20228;-78
2023/10/30 03:31:20;;;;;;;1.60;1.50;;;13.70;68.70;12.30;95518.00;;;;5033689;28;20284;-78
2023/10/30 03:33:47;;;;;;;1.27;1.17;;;13.70;68.80;12.20;95507.00;;;;5019912;28;20236;-78
2023/10/30 03:36:21;;;;;;;3.20;1.33;;;13.60;68.80;12.30;95507.00;;;;5019440;28;20205;-78
2023/10/30 03:38:48;;;;;;;1.40;1.30;;;13.70;69.10;12.30;95500.00;;;;5037770;28;20205;-78
2023/10/30 03:41:15;;;;;;;1.53;1.17;;;13.70;69.90;12.30;95507.00;;;;5036858;28;20205;-78
2023/10/30 03:43:43;;;;;;;1.07;1.03;;;13.70;69.40;12.30;95515.00;;;;5004772;28;20213;-79
2023/10/30 03:46:10;;;;;;;1.17;1.10;;;13.70;69.50;12.30;95513.00;;;;5022226;28;20230;-79
2023/10/30 03:48:37;;;;;;;0.97;0.97;;;13.60;69.40;12.30;95495.00;;;;5039815;28;20229;-79
2023/10/30 03:51:05;;;;;;;2.13;1.17;;;13.70;69.50;12.30;95512.00;;;;5039121;28;20288;-79
2023/10/30 03:53:34;;;;;;;1.47;1.37;;;13.60;69.40;12.30;95514.00;;;;5042124;28;20221;-79
2023/10/30 03:56:07;;;;;;;1.40;1.30;;;13.60;69.50;12.30;95522.00;;;;5028309;28;20240;-79
2023/10/30 03:58:34;;;;;;;1.37;1.27;;;13.60;69.70;12.30;95518.00;;;;5031159;28;20212;-79
2023/10/30 04:01:06;;;;;;;1.53;1.30;;;13.60;69.80;12.30;95523.00;;;;5016344;28;20264;-79
2023/10/30 04:03:34;;;;;;;1.23;1.20;;;13.60;69.90;12.30;95516.00;;;;5033380;28;20849;-79
2023/10/30 04:06:02;;;;;;;1.50;1.40;;;13.70;69.80;12.40;95503.00;;;;5015596;28;20228;-79
2023/10/30 04:08:30;;;;;;;1.63;1.40;;;13.70;69.80;12.30;95505.00;;;;5033002;28;20210;-79
2023/10/30 04:11:01;;;;;;;1.20;1.20;;;13.70;69.70;12.30;95511.00;;;;5033532;28;20284;-79
2023/10/30 04:13:30;;;;;;;1.67;1.30;;;13.60;69.60;12.30;95520.00;;;;5034266;28;20234;-79
2023/10/30 04:15:57;;;;;;;1.20;1.10;;;13.70;69.60;12.30;95524.00;;;;5034770;28;20206;-79
2023/10/30 04:18:26;;;;;;;1.73;1.10;;;13.70;69.60;12.30;95531.00;;;;5017271;28;20224;-79
2023/10/30 04:20:53;;;;;;;1.50;1.40;;;13.70;69.60;12.30;95530.00;;;;5034297;28;20225;-79
2023/10/30 04:23:20;;;;;;;1.37;1.27;;;13.70;69.70;12.30;95519.00;;;;5017001;28;20697;-79
2023/10/30 04:25:47;;;;;;;2.13;1.27;;;13.60;69.70;12.30;95515.00;;;;5035034;28;20280;-79
2023/10/30 04:28:16;;;;;;;1.10;1.00;;;13.60;69.70;12.30;95498.00;;;;5016891;28;20700;-79
2023/10/30 04:30:43;;;;;;;1.27;1.27;;;13.60;69.70;12.30;95504.00;;;;5027940;28;20759;-79
2023/10/30 04:33:11;;;;;;;1.60;1.50;;;13.60;69.70;12.30;95498.00;;;;5031812;28;20728;-79
2023/10/30 04:35:38;;;;;;;1.30;1.13;;;13.60;69.70;12.30;95502.00;;;;4988445;28;20655;-79
2023/10/30 04:38:05;;;;;;;2.43;1.30;;;13.60;69.60;12.30;95492.00;;;;5031475;28;20292;-79
2023/10/30 04:40:34;;;;;;;6.77;1.83;;;13.60;69.50;12.30;95486.00;;;;5025940;28;20225;-79
2023/10/30 04:43:03;;;;;;;1.30;1.20;;;13.60;69.40;12.20;95481.00;;;;5008768;28;20212;-79
2023/10/30 04:45:32;;;;;;;1.63;0.90;;;13.60;69.40;12.20;95485.00;;;;5018428;28;20208;-79
2023/10/30 04:47:59;;;;;;;1.47;1.37;;;13.60;69.30;12.20;95482.00;;;;5026344;28;20232;-78
2023/10/30 04:50:26;;;;;;;1.50;1.40;;;13.60;69.30;12.20;95467.00;;;;5034071;28;20228;-79
2023/10/30 04:52:54;;;;;;;1.50;1.40;;;13.60;69.20;12.20;95467.00;;;;5016810;28;20625;-79
2023/10/30 04:55:21;;;;;;;1.50;1.40;;;13.60;69.20;12.10;95462.00;;;;5030929;28;20201;-78
2023/10/30 04:57:48;;;;;;;1.90;1.33;;;13.60;69.30;12.10;95454.00;;;;5015566;28;20208;-78
2023/10/30 05:00:17;;;;;;;1.73;1.43;;;13.50;70.00;12.10;95452.00;;;;5032037;28;20229;-78
2023/10/30 05:02:47;;;;;;;1.83;1.40;;;13.50;70.10;12.10;95450.00;;;;4998782;28;20205;-79
2023/10/30 05:05:15;;;;;;;1.50;1.40;;;13.50;69.50;12.10;95444.00;;;;5033534;28;20197;-79
2023/10/30 05:07:44;;;;;;;2.27;1.60;;;13.50;69.60;12.10;95448.00;;;;5032243;28;20220;-78
2023/10/30 05:10:11;;;;;;;3.27;1.63;;;13.50;69.70;12.10;95451.00;;;;5033045;28;20278;-79
2023/10/30 05:12:39;;;;;;;1.50;1.40;;;13.50;69.80;12.20;95439.00;;;;5034061;28;20316;-79
2023/10/30 05:15:09;;;;;;;2.67;1.63;;;13.50;69.80;12.20;95434.00;;;;5009482;28;20209;-79
2023/10/30 05:17:38;;;;;;;1.53;1.43;;;13.50;69.90;12.20;95423.00;;;;5000482;28;20271;-78
2023/10/30 05:20:09;;;;;;;2.03;1.57;;;13.50;69.80;12.10;95425.00;;;;5033323;28;20595;-79
2023/10/30 05:22:37;;;;;;;1.53;1.43;;;13.50;69.80;12.10;95425.00;;;;5033917;28;20208;-79
2023/10/30 05:25:05;;;;;;;1.40;1.30;;;13.60;69.90;12.10;95422.00;;;;5032761;28;20678;-78
2023/10/30 05:27:33;;;;;;;1.70;1.60;;;13.50;69.90;12.20;95420.00;;;;5026566;28;20201;-79
2023/10/30 05:30:01;;;;;;;2.00;1.90;;;13.50;70.00;12.20;95416.00;;;;5016537;28;20251;-79
2023/10/30 05:32:28;;;;;;;1.63;1.53;;;13.50;70.20;12.20;95403.00;;;;5033791;28;20229;-79
2023/10/30 05:34:56;;;;;;;1.97;1.83;;;13.50;70.30;12.20;95413.00;;;;5025544;28;20601;-79
2023/10/30 05:37:24;;;;;;;1.50;1.40;;;13.50;70.40;12.20;95410.00;;;;5007854;28;20293;-79
2023/10/30 05:39:52;;;;;;;2.30;1.40;;;13.50;70.40;12.20;95418.00;;;;5032868;28;20251;-79
2023/10/30 05:42:19;;;;;;;1.80;1.70;;;13.50;70.30;12.20;95412.00;;;;5014945;28;20225;-79
2023/10/30 05:44:47;;;;;;;1.60;1.50;;;13.60;70.40;12.20;95420.00;;;;5033031;28;20219;-79
2023/10/30 05:47:14;;;;;;;1.53;1.43;;;13.60;70.30;12.20;95430.00;;;;5014591;28;20681;-79
2023/10/30 05:49:41;;;;;;;2.60;1.77;;;13.60;70.20;12.20;95424.00;;;;5033106;28;20316;-78
2023/10/30 05:52:09;;;;;;;1.80;1.67;;;13.60;70.10;12.20;95432.00;;;;4989958;28;20205;-79
2023/10/30 05:54:39;;;;;;;1.60;1.50;;;13.60;70.10;12.20;95443.00;;;;5030916;28;20215;-78
2023/10/30 05:57:07;;;;;;;2.33;2.07;;;13.60;70.10;12.20;95438.00;;;;5031860;28;20209;-79
2023/10/30 05:59:35;;;;;;;1.60;1.50;;;13.60;70.20;12.20;95446.00;;;;5032116;28;20273;-79
2023/10/30 06:02:05;;;;;;;2.77;1.93;;;13.60;70.10;12.30;95439.00;;;;5014594;28;20793;-78
2023/10/30 06:04:32;;;;;;;2.03;1.57;;;13.60;70.10;12.30;95438.00;;;;5016905;28;20235;-78
2023/10/30 06:06:59;;;;;;;1.60;1.50;;;13.60;70.10;12.20;95429.00;;;;5016207;28;20252;-79
2023/10/30 06:09:27;;;;;;;2.13;2.00;;;13.60;70.00;12.20;95422.00;;;;5015898;28;20591;-79
2023/10/30 06:11:56;;;;;;;1.87;1.60;;;13.60;70.00;12.20;95433.00;;;;5017148;28;20201;-79
2023/10/30 06:14:25;;;;;;;1.70;1.60;;;13.60;70.00;12.20;95444.00;;;;5033800;28;20224;-79
2023/10/30 06:16:52;;;;;;;2.07;1.77;;;13.60;69.90;12.20;95447.00;;;;5034364;28;20266;-79
2023/10/30 06:19:20;;;;;;;2.60;1.63;;;13.60;69.80;12.20;95446.00;;;;5033978;28;20221;-79
2023/10/30 06:21:47;;;;;;;2.13;2.03;;;13.60;69.70;12.20;95453.00;;;;5032704;28;20269;-79
2023/10/30 06:24:14;;;;;;;2.00;1.80;;;13.60;69.70;12.20;95454.00;;;;5032664;28;20207;-79
2023/10/30 06:26:42;;;;;;;1.77;1.63;;;13.60;69.70;12.20;95441.00;;;;5014456;28;20235;-79
2023/10/30 06:29:11;;;;;;;2.13;1.60;;;13.60;69.70;12.10;95445.00;;;;5032568;28;20221;-79
2023/10/30 06:31:38;;;;;;;1.60;1.50;;;13.50;69.60;12.10;95449.00;;;;5031997;28;20205;-79
2023/10/30 06:34:05;;;;;;;1.80;1.70;;;13.50;69.50;12.10;95453.00;;;;5014502;28;20231;-79
2023/10/30 06:36:32;;;;;;;1.60;1.50;;;13.50;69.40;12.10;95464.00;;;;5032242;28;20251;-79
2023/10/30 06:39:01;;;;;;;1.87;1.77;;;13.50;69.40;12.10;95463.00;;;;5027444;28;20237;-79
2023/10/30 06:41:29;;;;;;;1.70;1.60;;;13.50;69.40;12.00;95459.00;;;;5036796;28;20201;-79
2023/10/30 06:43:56;;;;;;;1.60;1.50;;;13.50;69.40;12.00;95451.00;;;;5016014;28;20209;-79
2023/10/30 06:46:25;;;;;;;1.73;1.63;;;13.50;69.40;12.00;95454.00;;;;5015515;28;20215;-79
2023/10/30 06:48:53;;;;;;;1.70;1.60;;;13.50;69.40;12.00;95450.00;;;;5031852;28;20241;-79
2023/10/30 06:51:20;;;;;;;1.80;1.70;;;13.50;69.40;12.00;95449.00;;;;5020317;28;20289;-79
2023/10/30 06:53:47;;;;;;;1.90;1.80;;;13.40;69.40;12.00;95459.00;;;;5011044;28;20312;-79
2023/10/30 06:56:14;;;;;;;1.80;1.70;;;13.40;69.40;12.00;95463.00;;;;5028268;28;20216;-79
2023/10/30 06:58:41;;;;;;;1.60;1.50;;;13.40;69.50;12.00;95463.00;;;;5030797;28;20201;-79
2023/10/30 07:01:09;;;;;;;2.23;2.03;;;13.40;69.70;12.00;95459.00;;;;4996861;28;20198;-78
2023/10/30 07:03:37;;;;;;;1.90;1.80;;;13.40;69.80;12.00;95465.00;;;;5019534;28;20241;-79
2023/10/30 07:06:06;;;;;;;2.10;1.77;;;13.40;70.00;12.00;95459.00;;;;5015983;28;20284;-80
2023/10/30 07:08:34;;;;;;;2.03;1.50;;;13.40;70.10;12.00;95450.00;;;;5016162;28;20709;-79
2023/10/30 07:11:02;;;;;;;2.43;1.90;;;13.40;70.20;12.00;95465.00;;;;5015088;28;20196;-80
2023/10/30 07:13:29;;;;;;;2.03;1.83;;;13.40;70.40;12.10;95463.00;;;;5030081;28;20600;-80
2023/10/30 07:15:57;;;;;;;2.00;1.90;;;13.40;70.50;12.10;95458.00;;;;5019035;28;20209;-80
2023/10/30 07:18:24;;;;;;;1.70;1.60;;;13.40;70.70;12.10;95464.00;;;;5027847;28;21322;-79
2023/10/30 07:20:53;;;;;;;1.93;1.80;;;13.40;70.80;12.20;95460.00;;;;5002467;28;20292;-80
2023/10/30 07:23:20;;;;;;;1.70;1.60;;;13.50;71.10;12.20;95460.00;;;;5035828;28;20591;-80
2023/10/30 07:25:48;;;;;;;1.97;1.87;;;13.50;71.30;12.30;95463.00;;;;5030612;28;20208;-81
2023/10/30 07:28:18;;;;;;;2.10;1.90;;;13.50;71.50;12.30;95465.00;;;;5016302;28;20212;-80
2023/10/30 07:30:45;;;;;;;2.47;2.10;;;13.60;71.80;12.30;95453.00;;;;5010106;28;20248;-80
2023/10/30 07:33:12;;;;;;;2.33;2.13;;;13.60;72.00;12.40;95449.00;;;;5016075;28;20230;-81
2023/10/30 07:35:40;;;;;;;2.70;2.50;;;13.60;72.30;12.50;95458.00;;;;5036101;28;20666;-81
2023/10/30 07:38:08;;;;;;;2.77;2.57;;;13.70;72.80;12.60;95451.00;;;;5036326;28;20605;-80
2023/10/30 07:40:36;;;;;;;2.70;2.50;;;13.70;73.20;12.60;95441.00;;;;5034784;28;20232;-79
2023/10/30 07:43:03;;;;;;;4.23;2.93;;;13.80;73.40;12.70;95439.00;;;;5035668;28;20235;-79
2023/10/30 07:45:30;;;;;;;3.20;3.00;;;13.80;73.70;12.80;95429.00;;;;5016292;28;20213;-79
2023/10/30 07:47:58;;;;;;;3.13;2.83;;;13.90;74.10;12.90;95426.00;;;;5034186;28;20209;-79
2023/10/30 07:50:25;;;;;;;3.47;3.17;;;14.00;74.30;13.00;95429.00;;;;5033480;28;20316;-79
2023/10/30 07:52:54;;;;;;;3.20;2.90;;;14.00;74.40;13.10;95433.00;;;;5033779;28;20569;-79
2023/10/30 07:55:22;;;;;;;2.50;2.30;;;14.10;74.60;13.20;95434.00;;;;5030239;28;20674;-79
2023/10/30 07:57:49;;;;;;;2.80;2.60;;;14.20;74.50;13.20;95444.00;;;;5004202;28;20203;-79
2023/10/30 08:00:17;;;;;;;2.83;2.53;;;14.30;74.40;13.30;95435.00;;;;5024660;28;20317;-79
2023/10/30 08:02:46;;;;;;;2.13;2.03;;;14.30;74.40;13.40;95438.00;;;;5035052;28;20292;-79
2023/10/30 08:05:14;;;;;;;2.77;2.57;;;14.40;74.50;13.50;95435.00;;;;5034013;28;20201;-79
2023/10/30 08:07:42;;;;;;;2.23;2.13;;;14.50;74.60;13.60;95436.00;;;;5027572;28;20209;-79
2023/10/30 08:10:10;;;;;;;2.60;2.40;;;14.60;74.60;13.70;95436.00;;;;5034921;28;20232;-79
2023/10/30 08:12:40;;;;;;;2.60;2.40;;;14.70;74.70;13.80;95430.00;;;;5035201;28;20220;-79
2023/10/30 08:15:09;;;;;;;2.40;2.20;;;14.80;74.90;13.90;95422.00;;;;5009497;28;20236;-80
2023/10/30 08:17:37;;;;;;;3.17;2.50;;;14.80;74.60;13.90;95418.00;;;;5034674;28;20740;-80
2023/10/30 08:20:05;;;;;;;2.87;2.53;;;14.90;74.70;14.00;95413.00;;;;5009560;28;20224;-80
2023/10/30 08:22:33;;;;;;;2.70;2.50;;;15.00;74.70;14.10;95409.00;;;;5027764;28;20227;-80
2023/10/30 08:25:00;;;;;;;2.70;2.50;;;15.10;74.60;14.20;95407.00;;;;5018172;28;20205;-80
2023/10/30 08:27:28;;;;;;;2.57;2.37;;;15.20;74.50;14.30;95398.00;;;;5035721;28;20232;-80
2023/10/30 08:29:57;;;;;;;2.47;2.27;;;15.30;74.50;14.40;95404.00;;;;5029179;28;20218;-80
2023/10/30 08:32:25;;;;;;;3.43;2.73;;;15.30;74.50;14.50;95403.00;;;;4968490;28;20209;-81
2023/10/30 08:34:54;;;;;;;2.93;2.73;;;15.40;74.50;14.50;95404.00;;;;5029276;28;20226;-81
2023/10/30 08:37:22;;;;;;;2.53;2.33;;;15.50;74.50;14.60;95406.00;;;;5035247;28;20205;-81
2023/10/30 08:39:49;;;;;;;2.27;2.17;;;15.60;74.40;14.70;95425.00;;;;5021479;28;20222;-80
2023/10/30 08:42:17;;;;;;;3.60;2.57;;;15.60;74.40;14.80;95424.00;;;;5033113;28;20215;-80
2023/10/30 08:44:44;;;;;;;2.73;2.03;;;15.70;74.40;14.90;95419.00;;;;5012167;28;20281;-81
2023/10/30 08:47:14;;;;;;;3.13;2.30;;;15.80;74.30;14.90;95424.00;;;;5014526;28;20225;-79
2023/10/30 08:49:42;;;;;;;2.63;2.43;;;15.90;74.30;15.00;95423.00;;;;5026548;28;20723;-79
2023/10/30 08:52:09;;;;;;;2.30;2.10;;;15.90;74.30;15.10;95421.00;;;;5014841;28;20292;-80
2023/10/30 08:54:37;;;;;;;2.80;2.60;;;16.00;75.10;15.20;95422.00;;;;5032790;28;20235;-82
2023/10/30 08:57:07;;;;;;;2.97;2.53;;;16.10;74.40;15.30;95416.00;;;;5034275;28;20209;-81
2023/10/30 08:59:38;;;;;;;2.77;2.57;;;16.20;74.10;15.40;95429.00;;;;5020110;28;20228;-78
2023/10/30 09:02:05;;;;;;;2.43;2.23;;;16.30;74.10;15.40;95420.00;;;;5034464;28;20213;-80
2023/10/30 09:04:34;;;;;;;2.40;2.30;;;16.30;74.10;15.50;95426.00;;;;5017614;28;20580;-79
2023/10/30 09:07:02;;;;;;;2.70;2.20;;;16.40;74.10;15.60;95417.00;;;;5035147;28;20209;-79
2023/10/30 09:09:29;;;;;;;2.20;2.10;;;16.50;74.10;15.70;95407.00;;;;5035869;28;20275;-79
2023/10/30 09:11:57;;;;;;;2.40;2.20;;;16.60;74.10;15.80;95404.00;;;;5035927;28;20686;-79
2023/10/30 09:14:24;;;;;;;2.30;2.10;;;16.60;73.90;15.80;95408.00;;;;5021573;28;20232;-80
2023/10/30 09:16:52;;;;;;;2.67;2.37;;;16.70;73.90;15.90;95405.00;;;;5016092;28;20661;-80
2023/10/30 09:19:19;;;;;;;2.43;2.23;;;16.80;73.70;16.00;95406.00;;;;5016751;28;20227;-79
2023/10/30 09:21:48;;;;;;;2.20;2.03;;;16.80;73.50;16.10;95397.00;;;;5032001;28;20221;-78
2023/10/30 09:24:16;;;;;;;2.33;2.17;;;16.90;73.50;16.20;95402.00;;;;5023989;28;20216;-81
2023/10/30 09:26:43;;;;;;;1.97;1.83;;;17.00;73.70;16.30;95399.00;;;;5028709;28;20201;-81
2023/10/30 09:29:10;;;;;;;2.40;2.30;;;17.10;73.70;16.40;95405.00;;;;5033192;28;20225;-81
2023/10/30 09:31:38;;;;;;;3.47;1.93;;;17.20;73.70;16.40;95385.00;;;;5034594;28;20225;-81
2023/10/30 09:34:05;;;;;;;1.90;1.80;;;17.30;73.70;16.50;95373.00;;;;5033580;28;20229;-81
2023/10/30 09:36:32;;;;;;;2.60;2.10;;;17.30;73.70;16.60;95380.00;;;;5029882;28;20829;-81
2023/10/30 09:39:01;;;;;;;2.17;1.87;;;17.40;73.60;16.70;95374.00;;;;5021346;28;20593;-80
2023/10/30 09:41:32;;;;;;;2.17;1.97;;;17.50;73.40;16.80;95368.00;;;;5024628;28;20201;-80
2023/10/30 09:44:02;;;;;;;2.17;1.93;;;17.60;73.40;16.80;95366.00;;;;5025306;28;20202;-80
2023/10/30 09:46:31;;;;;;;2.57;1.90;;;17.70;73.20;16.90;95375.00;;;;5032586;28;20672;-80
2023/10/30 09:49:00;;;;;;;2.03;1.83;;;17.80;72.90;17.00;95371.00;;;;5008326;28;20241;-80
2023/10/30 09:51:29;;;;;;;1.47;1.37;;;17.80;72.40;17.10;95358.00;;;;5032455;28;20219;-81
2023/10/30 09:54:00;;;;;;;1.80;1.70;;;17.90;72.50;17.10;95361.00;;;;5012577;28;20226;-81
2023/10/30 09:56:31;;;;;;;1.70;1.60;;;18.00;72.60;17.20;95352.00;;;;5033314;28;20201;-80
2023/10/30 09:59:00;;;;;;;1.80;1.70;;;18.10;72.60;17.30;95354.00;;;;5033458;28;20643;-81
2023/10/30 10:01:28;;;;;;;2.00;1.87;;;18.10;72.50;17.40;95353.00;;;;5016462;28;20205;-80
2023/10/30 10:03:56;;;;;;;2.50;2.30;;;18.20;72.40;17.40;95352.00;;;;5025377;28;20681;-80
2023/10/30 10:06:23;;;;;;;2.03;1.80;;;18.20;72.30;17.50;95352.00;;;;5033603;28;20208;-80
2023/10/30 10:08:50;;;;;;;2.10;1.90;;;18.30;72.20;17.60;95354.00;;;;5033997;28;20563;-80
2023/10/30 10:11:22;;;;;;;3.37;1.70;;;18.40;72.20;17.60;95351.00;;;;5014242;28;20209;-80
2023/10/30 10:13:53;;;;;;;2.20;2.00;;;18.40;72.10;17.70;95348.00;;;;5032644;28;20695;-81
2023/10/30 10:16:29;;;;;;;2.33;2.13;;;18.50;72.10;17.80;95336.00;;;;5032882;28;20205;-80
2023/10/30 10:18:56;;;;;;;2.13;1.93;;;18.60;72.00;17.80;95318.00;;;;5015578;28;20221;-81
2023/10/30 10:21:24;;;;;;;2.17;1.97;;;18.60;71.60;17.90;95311.00;;;;5015531;28;20281;-80
2023/10/30 10:23:52;;;;;;;2.57;2.37;;;18.60;71.40;17.90;95312.00;;;;5015495;28;20291;-80
2023/10/30 10:26:31;;;;;;;2.37;1.97;;;18.70;71.40;18.00;95302.00;;;;5013886;28;20205;-80
2023/10/30 10:28:59;;;;;;;2.67;2.47;;;18.80;71.10;18.10;95289.00;;;;5006773;28;20222;-80
2023/10/30 10:31:28;;;;;;;2.27;2.07;;;18.80;71.10;18.10;95281.00;;;;5014651;28;20654;-80
2023/10/30 10:33:58;;;;;;;1.90;1.80;;;18.90;70.90;18.20;95276.00;;;;5031217;28;20236;-81
2023/10/30 10:36:32;;;;;;;2.50;2.30;;;19.00;70.80;18.20;95271.00;;;;5030393;28;20271;-81
2023/10/30 10:39:00;;;;;;;2.60;2.13;;;19.00;70.30;18.30;95272.00;;;;5030066;28;20225;-80
2023/10/30 10:41:29;;;;;;;2.40;2.20;;;19.10;70.50;18.30;95263.00;;;;5029940;28;20289;-80
2023/10/30 10:44:00;;;;;;;2.03;1.93;;;19.10;70.20;18.40;95269.00;;;;5012983;28;20209;-80
2023/10/30 10:46:27;;;;;;;2.47;2.17;;;19.10;70.10;18.40;95266.00;;;;5013747;28;20809;-80
2023/10/30 10:48:54;;;;;;;2.20;2.00;;;19.20;69.50;18.40;95278.00;;;;5014621;28;20605;-80
2023/10/30 10:51:35;;;;;;;2.30;2.10;;;19.20;68.90;18.40;95279.00;;;;5032564;28;20201;-81
2023/10/30 10:54:12;;;;;;;2.40;2.30;;;19.30;68.60;18.50;95265.00;;;;5015866;28;20205;-81
2023/10/30 10:56:45;;;;;;;2.10;2.00;;;19.30;69.00;18.50;95260.00;;;;5019791;28;20232;-80
2023/10/30 10:59:17;;;;;;;2.27;2.07;;;19.30;69.00;18.50;95264.00;;;;5014838;28;20231;-80